createdAt,value
2016-10-17T00:01:08.204Z,0
2016-10-17T00:02:18.480Z,0
2016-10-17T00:03:28.474Z,0
2016-10-17T00:04:38.771Z,0
2016-10-17T00:05:48.137Z,0
2016-10-17T00:06:58.429Z,0
2016-10-17T00:08:08.726Z,0
2016-10-17T00:09:18.694Z,0
2016-10-17T00:10:28.991Z,0
2016-10-17T00:11:39.274Z,0
2016-10-17T00:12:49.548Z,0
2016-10-17T00:13:59.843Z,0
2016-10-17T00:15:10.126Z,0
2016-10-17T00:16:20.102Z,0
2016-10-17T00:17:30.389Z,0
2016-10-17T00:18:40.667Z,0
2016-10-17T00:19:50.950Z,0
2016-10-17T00:21:01.212Z,0
2016-10-17T00:22:11.191Z,0
2016-10-17T00:23:21.500Z,0
2016-10-17T00:24:31.783Z,0
2016-10-17T00:25:42.071Z,0
2016-10-17T00:26:51.755Z,0
2016-10-17T00:28:01.733Z,0
2016-10-17T00:29:11.699Z,0
2016-10-17T00:30:21.696Z,0
2016-10-17T00:31:31.991Z,0
2016-10-17T00:32:41.649Z,0
2016-10-17T00:33:51.627Z,0
2016-10-17T00:35:01.927Z,0
2016-10-17T00:36:12.214Z,0
2016-10-17T00:37:22.506Z,0
2016-10-17T00:38:32.781Z,0
2016-10-17T00:39:43.086Z,0
2016-10-17T00:40:53.085Z,0
2016-10-17T00:42:03.376Z,0
2016-10-17T00:43:13.058Z,0
2016-10-17T00:44:23.388Z,0
2016-10-17T00:45:33.057Z,0
2016-10-17T00:46:42.771Z,0
2016-10-17T00:47:53.054Z,0
2016-10-17T00:49:03.333Z,0
2016-10-17T00:50:13.310Z,0
2016-10-17T00:51:23.282Z,0
2016-10-17T00:52:33.558Z,0
2016-10-17T00:53:43.530Z,0
2016-10-17T00:54:53.831Z,0
2016-10-17T00:56:03.804Z,0
2016-10-17T00:57:14.091Z,0
2016-10-17T00:58:24.370Z,0
2016-10-17T00:59:34.355Z,0
2016-10-17T01:00:44.644Z,0
2016-10-17T01:01:54.632Z,0
2016-10-17T01:03:04.608Z,0
2016-10-17T01:04:14.885Z,0
2016-10-17T01:05:24.899Z,0
2016-10-17T01:06:34.904Z,0
2016-10-17T01:07:45.198Z,0
2016-10-17T01:08:55.482Z,0
2016-10-17T01:10:05.785Z,0
2016-10-17T01:11:15.462Z,0
2016-10-17T01:12:25.447Z,0
2016-10-17T01:13:35.725Z,0
2016-10-17T01:14:45.701Z,0
2016-10-17T01:15:55.689Z,0
2016-10-17T01:17:05.975Z,0
2016-10-17T01:18:15.947Z,0
2016-10-17T01:19:26.223Z,0
2016-10-17T01:20:36.525Z,0
2016-10-17T01:21:46.502Z,0
2016-10-17T01:22:56.483Z,0
2016-10-17T01:24:06.768Z,0
2016-10-17T01:25:16.458Z,0
2016-10-17T01:26:26.118Z,0
2016-10-17T01:27:36.405Z,0
2016-10-17T01:28:46.414Z,0
2016-10-17T01:29:56.705Z,0
2016-10-17T01:31:06.673Z,0
2016-10-17T01:32:16.958Z,0
2016-10-17T01:33:26.930Z,0
2016-10-17T01:34:37.225Z,0
2016-10-17T01:35:47.530Z,0
2016-10-17T01:36:57.823Z,0
2016-10-17T01:38:08.103Z,0
2016-10-17T01:39:18.407Z,0
2016-10-17T01:40:28.384Z,0
2016-10-17T01:41:38.362Z,0
2016-10-17T01:42:48.653Z,0
2016-10-17T01:43:58.933Z,0
2016-10-17T01:45:09.217Z,0
2016-10-17T01:46:19.519Z,0
2016-10-17T01:47:29.485Z,0
2016-10-17T01:48:39.780Z,0
2016-10-17T01:49:49.765Z,0
2016-10-17T01:51:00.044Z,0
2016-10-17T01:52:10.336Z,0
2016-10-17T01:53:20.638Z,0
2016-10-17T01:54:30.935Z,0
2016-10-17T01:55:41.229Z,0
2016-10-17T01:56:51.202Z,0
2016-10-17T01:58:01.488Z,0
2016-10-17T01:59:11.476Z,0
2016-10-17T02:00:21.783Z,0
2016-10-17T02:01:31.759Z,0
2016-10-17T02:02:41.746Z,0
2016-10-17T02:03:52.019Z,0
2016-10-17T02:05:02.315Z,0
2016-10-17T02:06:12.636Z,0
2016-10-17T02:07:22.619Z,0
2016-10-17T02:08:32.291Z,0
2016-10-17T02:09:42.267Z,0
2016-10-17T02:10:52.564Z,0
2016-10-17T02:12:02.545Z,0
2016-10-17T02:13:12.825Z,0
2016-10-17T02:14:23.136Z,0
2016-10-17T02:15:33.425Z,0
2016-10-17T02:16:43.728Z,0
2016-10-17T02:17:53.718Z,0
2016-10-17T02:19:04.003Z,0
2016-10-17T02:20:14.323Z,0
2016-10-17T02:21:24.613Z,0
2016-10-17T02:22:34.807Z,0
2016-10-17T02:23:44.808Z,0
2016-10-17T02:24:55.111Z,0
2016-10-17T02:26:05.089Z,0
2016-10-17T02:27:15.369Z,0
2016-10-17T02:28:25.655Z,0
2016-10-17T02:29:35.625Z,0
2016-10-17T02:30:45.904Z,0
2016-10-17T02:31:56.181Z,0
2016-10-17T02:33:06.165Z,0
2016-10-17T02:34:15.831Z,0
2016-10-17T02:35:25.803Z,0
2016-10-17T02:36:35.793Z,0
2016-10-17T02:37:45.810Z,0
2016-10-17T02:38:56.100Z,0
2016-10-17T02:40:06.400Z,0
2016-10-17T02:41:16.691Z,0
2016-10-17T02:42:26.992Z,0
2016-10-17T02:43:36.968Z,0
2016-10-17T02:44:47.266Z,0
2016-10-17T02:45:57.554Z,0
2016-10-17T02:47:07.515Z,0
2016-10-17T02:48:17.822Z,0
2016-10-17T02:49:28.104Z,0
2016-10-17T02:50:38.089Z,0
2016-10-17T02:51:48.061Z,0
2016-10-17T02:52:58.348Z,0
2016-10-17T02:54:08.635Z,0
2016-10-17T02:55:18.612Z,0
2016-10-17T02:56:28.911Z,0
2016-10-17T02:57:38.881Z,0
2016-10-17T02:58:48.868Z,0
2016-10-17T02:59:58.839Z,0
2016-10-17T03:01:09.131Z,0
2016-10-17T03:33:14.281Z,0
2016-10-17T03:34:23.933Z,0
2016-10-17T03:35:34.203Z,0
2016-10-17T03:36:44.485Z,0
2016-10-17T03:37:54.458Z,0
2016-10-17T03:39:04.751Z,0
2016-10-17T03:40:15.045Z,0
2016-10-17T03:41:25.013Z,0
2016-10-17T03:42:34.991Z,0
2016-10-17T03:43:44.967Z,0
2016-10-17T03:44:54.638Z,0
2016-10-17T03:46:04.942Z,0
2016-10-17T03:47:14.926Z,0
2016-10-17T03:48:24.917Z,0
2016-10-17T03:49:35.199Z,0
2016-10-17T03:50:45.188Z,0
2016-10-17T03:51:55.180Z,0
2016-10-17T03:53:05.476Z,0
2016-10-17T03:54:15.783Z,0
2016-10-17T03:55:26.076Z,0
2016-10-17T03:56:36.056Z,0
2016-10-17T03:57:45.710Z,0
2016-10-17T03:58:55.699Z,0
2016-10-17T04:00:05.991Z,0
2016-10-17T04:01:16.280Z,0
2016-10-17T04:02:26.280Z,0
2016-10-17T04:03:36.275Z,0
2016-10-17T04:04:46.572Z,0
2016-10-17T04:05:56.884Z,0
2016-10-17T04:07:06.866Z,0
2016-10-17T04:08:17.143Z,0
2016-10-17T04:09:27.428Z,0
2016-10-17T04:10:37.398Z,0
2016-10-17T04:11:47.683Z,0
2016-10-17T04:12:57.660Z,0
2016-10-17T04:14:07.656Z,0
2016-10-17T04:15:17.624Z,0
2016-10-17T04:16:27.900Z,0
2016-10-17T04:17:38.197Z,0
2016-10-17T04:18:48.478Z,0
2016-10-17T04:19:58.453Z,0
2016-10-17T04:21:08.757Z,0
2016-10-17T04:22:18.424Z,0
2016-10-17T04:23:28.725Z,0
2016-10-17T04:24:39.012Z,0
2016-10-17T04:25:48.990Z,0
2016-10-17T04:26:58.971Z,0
2016-10-17T04:28:08.972Z,0
2016-10-17T04:29:18.958Z,0
2016-10-17T04:30:29.258Z,0
2016-10-17T04:31:39.549Z,0
2016-10-17T04:32:49.835Z,0
2016-10-17T04:33:59.818Z,0
2016-10-17T04:35:09.492Z,0
2016-10-17T04:36:19.780Z,0
2016-10-17T04:37:30.071Z,0
2016-10-17T04:38:40.358Z,0
2016-10-17T04:39:50.348Z,0
2016-10-17T04:41:00.651Z,0
2016-10-17T04:42:10.938Z,0
2016-10-17T04:43:20.928Z,0
2016-10-17T04:44:31.221Z,0
2016-10-17T04:45:41.522Z,0
2016-10-17T04:46:51.494Z,0
2016-10-17T04:48:01.191Z,0
2016-10-17T04:49:11.473Z,0
2016-10-17T04:50:21.139Z,0
2016-10-17T04:51:30.811Z,0
2016-10-17T04:52:41.097Z,0
2016-10-17T04:53:51.393Z,0
2016-10-17T04:55:01.360Z,0
2016-10-17T04:56:11.642Z,0
2016-10-17T04:57:21.933Z,0
2016-10-17T04:58:32.231Z,0
2016-10-17T04:59:42.515Z,0
2016-10-17T05:00:52.803Z,0
2016-10-17T05:02:03.109Z,0
2016-10-17T05:03:13.101Z,0
2016-10-17T05:04:23.396Z,0
2016-10-17T05:05:33.386Z,0
2016-10-17T05:06:43.351Z,0
2016-10-17T05:07:53.322Z,0
2016-10-17T05:09:03.620Z,0
2016-10-17T05:10:13.304Z,0
2016-10-17T05:11:23.264Z,0
2016-10-17T05:12:33.542Z,0
2016-10-17T05:13:43.839Z,0
2016-10-17T05:14:53.805Z,0
2016-10-17T05:16:03.480Z,0
2016-10-17T05:17:13.771Z,0
2016-10-17T05:18:23.744Z,0
2016-10-17T05:19:34.030Z,0
2016-10-17T05:20:44.313Z,0
2016-10-17T05:21:54.598Z,0
2016-10-17T05:23:04.597Z,0
2016-10-17T05:24:14.582Z,0
2016-10-17T05:25:24.553Z,0
2016-10-17T05:26:34.855Z,0
2016-10-17T05:27:44.838Z,5
2016-10-17T05:28:55.133Z,5
2016-10-17T05:30:04.832Z,5
2016-10-17T05:31:14.501Z,5
2016-10-17T05:32:24.803Z,5
2016-10-17T05:33:34.795Z,5
2016-10-17T05:34:44.777Z,5
2016-10-17T05:35:55.089Z,5
2016-10-17T05:37:05.374Z,10
2016-10-17T05:38:15.036Z,10
2016-10-17T05:39:25.332Z,10
2016-10-17T05:40:35.330Z,10
2016-10-17T05:41:45.321Z,10
2016-10-17T05:42:55.633Z,10
2016-10-17T05:44:05.924Z,10
2016-10-17T05:45:15.938Z,10
2016-10-17T05:46:25.923Z,10
2016-10-17T05:47:35.900Z,15
2016-10-17T05:48:45.887Z,15
2016-10-17T05:49:56.162Z,15
2016-10-17T05:51:06.158Z,15
2016-10-17T05:52:16.435Z,15
2016-10-17T05:53:26.104Z,15
2016-10-17T05:54:36.075Z,15
2016-10-17T05:55:45.439Z,15
2016-10-17T05:56:55.740Z,15
2016-10-17T05:58:05.720Z,15
2016-10-17T05:59:15.999Z,15
2016-10-17T06:00:26.296Z,15
2016-10-17T06:01:36.286Z,10
2016-10-17T06:02:46.268Z,10
2016-10-17T06:03:55.962Z,10
2016-10-17T06:05:06.249Z,15
2016-10-17T06:06:16.549Z,15
2016-10-17T06:07:26.541Z,15
2016-10-17T06:08:36.518Z,15
2016-10-17T06:09:46.488Z,15
2016-10-17T06:10:56.799Z,15
2016-10-17T06:12:06.781Z,15
2016-10-17T06:13:16.764Z,15
2016-10-17T06:14:27.060Z,15
2016-10-17T06:15:37.041Z,15
2016-10-17T06:16:47.012Z,15
2016-10-17T06:17:56.982Z,15
2016-10-17T06:19:07.297Z,15
2016-10-17T06:20:17.287Z,15
2016-10-17T06:21:27.260Z,20
2016-10-17T06:22:37.539Z,20
2016-10-17T06:23:47.855Z,25
2016-10-17T06:24:58.139Z,25
2016-10-17T06:26:08.116Z,30
2016-10-17T06:27:17.472Z,30
2016-10-17T06:28:27.759Z,25
2016-10-17T06:29:37.745Z,30
2016-10-17T06:30:47.727Z,30
2016-10-17T06:31:57.414Z,30
2016-10-17T06:33:07.733Z,25
2016-10-17T06:34:17.701Z,25
2016-10-17T06:35:27.684Z,25
2016-10-17T06:36:37.961Z,30
2016-10-17T06:37:48.258Z,30
2016-10-17T06:38:57.938Z,30
2016-10-17T06:40:07.906Z,30
2016-10-17T06:41:18.191Z,30
2016-10-17T06:42:28.163Z,30
2016-10-17T06:43:38.150Z,30
2016-10-17T06:44:48.123Z,25
2016-10-17T06:45:58.424Z,25
2016-10-17T06:47:08.715Z,30
2016-10-17T06:48:18.695Z,30
2016-10-17T06:49:28.983Z,30
2016-10-17T06:50:39.300Z,30
2016-10-17T06:51:49.591Z,30
2016-10-17T06:52:59.571Z,30
2016-10-17T06:54:09.872Z,30
2016-10-17T06:55:20.167Z,30
2016-10-17T06:56:30.141Z,30
2016-10-17T06:57:40.453Z,30
2016-10-17T06:58:50.809Z,30
2016-10-17T07:00:00.493Z,35
2016-10-17T07:01:10.784Z,30
2016-10-17T07:02:21.068Z,30
2016-10-17T07:03:31.039Z,30
2016-10-17T07:04:41.316Z,30
2016-10-17T07:05:51.616Z,30
2016-10-17T07:07:01.905Z,30
2016-10-17T07:08:11.888Z,30
2016-10-17T07:09:22.178Z,30
2016-10-17T07:10:32.310Z,30
2016-10-17T07:11:42.595Z,30
2016-10-17T07:12:52.918Z,30
2016-10-17T07:14:02.901Z,30
2016-10-17T07:15:12.901Z,30
2016-10-17T07:16:22.884Z,25
2016-10-17T07:17:33.184Z,25
2016-10-17T07:18:43.203Z,25
2016-10-17T07:19:53.178Z,30
2016-10-17T07:21:02.855Z,30
2016-10-17T07:22:13.138Z,25
2016-10-17T07:23:23.428Z,30
2016-10-17T07:24:33.723Z,30
2016-10-17T07:25:43.411Z,30
2016-10-17T07:26:53.694Z,30
2016-10-17T07:28:03.678Z,30
2016-10-17T07:29:13.961Z,35
2016-10-17T07:30:23.946Z,35
2016-10-17T07:31:34.254Z,35
2016-10-17T07:32:44.556Z,35
2016-10-17T07:33:54.854Z,35
2016-10-17T07:35:05.145Z,35
2016-10-17T07:36:15.423Z,40
2016-10-17T07:37:25.715Z,35
2016-10-17T07:38:36.005Z,35
2016-10-17T07:39:46.302Z,35
2016-10-17T07:40:56.592Z,35
2016-10-17T07:42:06.892Z,35
2016-10-17T07:43:17.208Z,35
2016-10-17T07:44:27.201Z,35
2016-10-17T07:45:37.175Z,35
2016-10-17T07:46:47.469Z,35
2016-10-17T07:47:57.745Z,35
2016-10-17T07:49:08.047Z,35
2016-10-17T07:50:18.334Z,35
2016-10-17T07:51:28.680Z,35
2016-10-17T07:52:38.972Z,40
2016-10-17T07:53:48.973Z,40
2016-10-17T07:54:59.319Z,40
2016-10-17T07:56:09.613Z,35
2016-10-17T07:57:19.914Z,40
2016-10-17T07:58:30.237Z,40
2016-10-17T08:00:49.269Z,40
2016-10-17T08:01:59.242Z,40
2016-10-17T08:03:09.524Z,40
2016-10-17T08:04:19.811Z,45
2016-10-17T08:05:30.102Z,45
2016-10-17T08:06:40.378Z,45
2016-10-17T08:07:50.674Z,45
2016-10-17T08:09:00.649Z,45
2016-10-17T08:10:10.622Z,45
2016-10-17T08:11:20.605Z,45
2016-10-17T08:12:30.577Z,45
2016-10-17T08:13:40.859Z,45
2016-10-17T08:14:51.146Z,45
2016-10-17T08:16:01.112Z,45
2016-10-17T08:17:11.102Z,45
2016-10-17T08:18:21.090Z,45
2016-10-17T08:19:31.382Z,45
2016-10-17T08:20:41.658Z,45
2016-10-17T08:21:51.640Z,45
2016-10-17T08:23:01.933Z,45
2016-10-17T08:24:11.898Z,45
2016-10-17T08:25:22.180Z,45
2016-10-17T08:26:32.472Z,45
2016-10-17T08:27:42.448Z,50
2016-10-17T08:28:52.731Z,50
2016-10-17T08:30:02.712Z,50
2016-10-17T08:31:12.771Z,45
2016-10-17T08:32:23.046Z,45
2016-10-17T08:33:33.326Z,50
2016-10-17T08:34:43.619Z,55
2016-10-17T08:35:53.909Z,55
2016-10-17T08:37:03.881Z,55
2016-10-17T08:38:14.210Z,50
2016-10-17T08:39:24.500Z,50
2016-10-17T08:40:34.807Z,50
2016-10-17T08:41:44.470Z,55
2016-10-17T08:42:54.771Z,60
2016-10-17T08:44:05.064Z,55
2016-10-17T08:45:15.348Z,60
2016-10-17T08:46:25.636Z,60
2016-10-17T08:47:35.922Z,65
2016-10-17T08:48:46.210Z,65
2016-10-17T08:49:56.496Z,65
2016-10-17T08:51:06.772Z,65
2016-10-17T08:52:17.299Z,70
2016-10-17T08:53:27.286Z,70
2016-10-17T08:54:37.583Z,70
2016-10-17T08:55:47.904Z,70
2016-10-17T08:56:58.196Z,70
2016-10-17T08:58:08.187Z,70
2016-10-17T08:59:18.476Z,75
2016-10-17T09:00:28.452Z,80
2016-10-17T09:01:38.738Z,80
2016-10-17T09:02:49.081Z,80
2016-10-17T09:03:59.370Z,80
2016-10-17T09:05:09.683Z,80
2016-10-17T09:06:19.973Z,70
2016-10-17T09:07:30.342Z,70
2016-10-17T09:08:40.022Z,70
2016-10-17T09:09:50.304Z,70
2016-10-17T09:11:00.592Z,70
2016-10-17T09:12:10.572Z,70
2016-10-17T09:13:20.861Z,70
2016-10-17T09:14:31.161Z,70
2016-10-17T09:15:41.444Z,70
2016-10-17T09:16:51.125Z,70
2016-10-17T09:18:01.413Z,70
2016-10-17T09:19:11.712Z,70
2016-10-17T09:20:21.704Z,75
2016-10-17T09:21:32.000Z,75
2016-10-17T09:22:42.312Z,80
2016-10-17T09:23:52.317Z,80
2016-10-17T09:25:02.621Z,85
2016-10-17T09:26:12.903Z,90
2016-10-17T09:27:22.879Z,95
2016-10-17T09:28:33.157Z,95
2016-10-17T09:29:42.533Z,90
2016-10-17T09:30:52.821Z,85
2016-10-17T09:32:02.799Z,80
2016-10-17T09:33:13.094Z,80
2016-10-17T09:34:23.390Z,80
2016-10-17T09:35:33.364Z,80
2016-10-17T09:36:43.663Z,80
2016-10-17T09:37:53.951Z,85
2016-10-17T09:39:03.931Z,85
2016-10-17T09:40:14.225Z,90
2016-10-17T09:41:24.535Z,90
2016-10-17T09:42:34.553Z,90
2016-10-17T09:43:44.525Z,85
2016-10-17T09:44:54.506Z,80
2016-10-17T09:46:04.788Z,80
2016-10-17T09:47:15.071Z,80
2016-10-17T09:48:25.050Z,80
2016-10-17T09:49:34.404Z,80
2016-10-17T09:50:44.384Z,80
2016-10-17T09:51:54.661Z,80
2016-10-17T09:53:04.628Z,80
2016-10-17T09:54:14.919Z,80
2016-10-17T09:55:24.925Z,80
2016-10-17T09:56:34.912Z,75
2016-10-17T09:57:44.886Z,70
2016-10-17T09:58:54.858Z,65
2016-10-17T10:00:05.162Z,70
2016-10-17T10:01:15.148Z,70
2016-10-17T10:02:28.857Z,70
2016-10-17T10:03:45.615Z,70
2016-10-17T10:04:59.105Z,65
2016-10-17T10:06:10.690Z,60
2016-10-17T10:07:20.280Z,65
2016-10-17T10:08:30.585Z,70
2016-10-17T10:09:41.144Z,70
2016-10-17T10:10:51.154Z,70
2016-10-17T10:12:00.911Z,65
2016-10-17T10:13:10.938Z,70
2016-10-17T10:14:21.305Z,70
2016-10-17T10:15:31.649Z,75
2016-10-17T10:16:42.156Z,70
2016-10-17T10:17:52.249Z,70
2016-10-17T10:19:03.629Z,75
2016-10-17T10:20:14.291Z,75
2016-10-17T10:21:24.769Z,70
2016-10-17T10:22:34.469Z,70
2016-10-17T10:23:44.828Z,70
2016-10-17T10:24:54.822Z,70
2016-10-17T10:26:05.106Z,65
2016-10-17T10:27:22.482Z,65
2016-10-17T10:28:39.160Z,65
2016-10-17T10:29:51.352Z,70
2016-10-17T10:31:02.489Z,75
2016-10-17T10:32:12.632Z,75
2016-10-17T10:33:22.644Z,80
2016-10-17T10:34:32.956Z,65
2016-10-17T10:35:43.251Z,60
2016-10-17T10:36:52.923Z,60
2016-10-17T10:38:02.865Z,60
2016-10-17T10:39:13.145Z,65
2016-10-17T10:40:23.463Z,60
2016-10-17T10:41:33.439Z,60
2016-10-17T10:42:43.532Z,60
2016-10-17T10:43:53.874Z,65
2016-10-17T10:45:03.552Z,65
2016-10-17T10:46:13.235Z,60
2016-10-17T10:47:23.517Z,60
2016-10-17T10:48:33.193Z,65
2016-10-17T10:49:43.191Z,65
2016-10-17T10:50:52.554Z,60
2016-10-17T10:52:02.879Z,60
2016-10-17T10:53:13.175Z,60
2016-10-17T10:54:23.501Z,60
2016-10-17T10:55:33.485Z,60
2016-10-17T10:56:43.773Z,60
2016-10-17T10:57:54.069Z,60
2016-10-17T10:59:04.364Z,60
2016-10-17T11:00:14.692Z,60
2016-10-17T11:01:24.386Z,60
2016-10-17T11:02:34.685Z,60
2016-10-17T11:03:44.980Z,55
2016-10-17T11:04:55.287Z,55
2016-10-17T11:06:05.287Z,55
2016-10-17T11:07:15.650Z,55
2016-10-17T11:08:25.960Z,55
2016-10-17T11:09:36.237Z,50
2016-10-17T11:10:46.564Z,50
2016-10-17T11:11:56.859Z,55
2016-10-17T11:13:06.836Z,55
2016-10-17T11:14:16.830Z,55
2016-10-17T11:15:27.140Z,55
2016-10-17T11:16:37.134Z,50
2016-10-17T11:17:47.489Z,50
2016-10-17T11:18:57.774Z,50
2016-10-17T11:20:08.076Z,45
2016-10-17T11:21:18.393Z,45
2016-10-17T11:22:28.075Z,45
2016-10-17T11:23:38.068Z,45
2016-10-17T11:24:48.362Z,45
2016-10-17T11:25:58.093Z,45
2016-10-17T11:27:08.100Z,45
2016-10-17T11:28:18.089Z,45
2016-10-17T11:29:28.089Z,45
2016-10-17T11:30:38.095Z,45
2016-10-17T11:31:48.389Z,45
2016-10-17T11:32:58.369Z,45
2016-10-17T11:34:08.717Z,45
2016-10-17T11:35:18.702Z,45
2016-10-17T11:36:28.744Z,45
2016-10-17T11:37:39.284Z,45
2016-10-17T11:38:49.280Z,45
2016-10-17T11:39:59.592Z,45
2016-10-17T11:41:09.295Z,45
2016-10-17T11:42:19.603Z,45
2016-10-17T11:43:29.600Z,45
2016-10-17T11:44:39.891Z,45
2016-10-17T11:45:50.185Z,45
2016-10-17T11:47:00.524Z,45
2016-10-17T11:48:10.505Z,45
2016-10-17T11:49:20.482Z,45
2016-10-17T11:50:30.453Z,45
2016-10-17T11:51:40.448Z,45
2016-10-17T11:52:50.756Z,45
2016-10-17T11:54:00.739Z,45
2016-10-17T11:55:11.027Z,45
2016-10-17T11:56:21.018Z,45
2016-10-17T11:57:31.334Z,45
2016-10-17T11:58:41.325Z,45
2016-10-17T11:59:51.317Z,45
2016-10-17T12:01:01.312Z,45
2016-10-17T12:02:11.625Z,45
2016-10-17T12:03:21.646Z,45
2016-10-17T12:04:31.033Z,40
2016-10-17T12:05:41.032Z,40
2016-10-17T12:06:51.021Z,40
2016-10-17T12:08:01.300Z,40
2016-10-17T12:09:11.619Z,40
2016-10-17T12:10:21.616Z,40
2016-10-17T12:11:31.592Z,40
2016-10-17T12:12:41.884Z,40
2016-10-17T12:13:52.195Z,40
2016-10-17T12:15:02.529Z,35
2016-10-17T12:16:12.829Z,35
2016-10-17T12:17:23.106Z,35
2016-10-17T12:18:33.108Z,40
2016-10-17T12:19:43.388Z,40
2016-10-17T12:20:53.061Z,40
2016-10-17T12:22:03.080Z,35
2016-10-17T12:23:13.385Z,35
2016-10-17T12:24:23.390Z,35
2016-10-17T12:25:33.727Z,35
2016-10-17T12:26:44.041Z,35
2016-10-17T12:27:54.041Z,35
2016-10-17T12:29:04.039Z,40
2016-10-17T12:30:14.347Z,40
2016-10-17T12:31:24.664Z,40
2016-10-17T12:32:34.954Z,40
2016-10-17T12:33:44.925Z,35
2016-10-17T12:34:55.218Z,35
2016-10-17T12:36:05.529Z,35
2016-10-17T12:37:15.829Z,35
2016-10-17T12:38:25.809Z,40
2016-10-17T12:39:35.506Z,45
2016-10-17T12:40:45.796Z,40
2016-10-17T12:41:55.772Z,35
2016-10-17T12:43:06.304Z,35
2016-10-17T12:44:16.605Z,40
2016-10-17T12:45:26.290Z,40
2016-10-17T12:46:36.616Z,40
2016-10-17T12:47:46.612Z,40
2016-10-17T12:48:56.594Z,40
2016-10-17T12:50:06.585Z,40
2016-10-17T12:51:16.878Z,40
2016-10-17T12:52:26.562Z,35
2016-10-17T12:53:36.558Z,35
2016-10-17T12:54:46.551Z,35
2016-10-17T12:55:56.534Z,35
2016-10-17T12:57:06.583Z,35
2016-10-17T12:58:16.632Z,30
2016-10-17T12:59:26.963Z,30
2016-10-17T13:00:37.487Z,30
2016-10-17T13:01:47.210Z,30
2016-10-17T13:02:57.191Z,30
2016-10-17T13:04:07.493Z,30
2016-10-17T13:05:17.192Z,30
2016-10-17T13:06:27.485Z,30
2016-10-17T13:07:37.801Z,35
2016-10-17T13:08:47.799Z,30
2016-10-17T13:09:57.813Z,30
2016-10-17T13:11:08.099Z,30
2016-10-17T13:12:18.397Z,30
2016-10-17T13:13:28.716Z,30
2016-10-17T13:14:38.704Z,30
2016-10-17T13:15:48.746Z,30
2016-10-17T13:16:58.987Z,30
2016-10-17T13:18:08.678Z,30
2016-10-17T13:19:18.666Z,30
2016-10-17T13:20:28.346Z,30
2016-10-17T13:21:37.714Z,30
2016-10-17T13:22:47.691Z,30
2016-10-17T13:23:57.688Z,30
2016-10-17T13:25:08.022Z,30
2016-10-17T13:26:18.338Z,25
2016-10-17T13:27:28.653Z,25
2016-10-17T13:28:38.644Z,25
2016-10-17T13:29:48.633Z,25
2016-10-17T13:30:58.958Z,25
2016-10-17T13:32:09.256Z,25
2016-10-17T13:33:19.264Z,25
2016-10-17T13:34:29.261Z,25
2016-10-17T13:35:39.261Z,25
2016-10-17T13:36:49.552Z,25
2016-10-17T13:37:59.857Z,25
2016-10-17T13:39:09.846Z,25
2016-10-17T13:40:19.850Z,20
2016-10-17T13:41:29.555Z,20
2016-10-17T13:42:39.548Z,20
2016-10-17T13:43:49.541Z,20
2016-10-17T13:44:59.855Z,20
2016-10-17T13:46:10.175Z,20
2016-10-17T13:47:20.163Z,20
2016-10-17T13:48:29.902Z,20
2016-10-17T13:49:40.234Z,20
2016-10-17T13:50:50.219Z,20
2016-10-17T13:52:00.204Z,20
2016-10-17T13:53:10.532Z,20
2016-10-17T13:54:20.560Z,20
2016-10-17T13:55:30.907Z,20
2016-10-17T13:56:40.907Z,20
2016-10-17T13:57:50.926Z,20
2016-10-17T13:59:01.211Z,20
2016-10-17T14:00:11.572Z,15
2016-10-17T14:01:21.572Z,15
2016-10-17T14:02:31.882Z,15
2016-10-17T14:03:42.189Z,15
2016-10-17T14:04:52.501Z,15
2016-10-17T14:06:02.807Z,15
2016-10-17T14:07:13.109Z,15
2016-10-17T14:08:23.106Z,15
2016-10-17T14:09:33.412Z,10
2016-10-17T14:10:43.717Z,10
2016-10-17T14:11:54.020Z,10
2016-10-17T14:13:03.715Z,10
2016-10-17T14:14:13.718Z,10
2016-10-17T14:15:23.715Z,10
2016-10-17T14:16:34.035Z,10
2016-10-17T14:17:44.072Z,10
2016-10-17T14:18:54.052Z,10
2016-10-17T14:20:04.057Z,10
2016-10-17T14:21:14.361Z,10
2016-10-17T14:22:24.707Z,10
2016-10-17T14:23:34.685Z,10
2016-10-17T14:24:44.986Z,10
2016-10-17T14:25:54.997Z,10
2016-10-17T14:27:05.018Z,5
2016-10-17T14:28:15.320Z,5
2016-10-17T14:29:25.626Z,5
2016-10-17T14:30:35.916Z,5
2016-10-17T14:31:45.916Z,10
2016-10-17T14:32:56.215Z,5
2016-10-17T14:34:06.227Z,5
2016-10-17T14:35:16.523Z,5
2016-10-17T14:36:26.225Z,5
2016-10-17T14:37:35.900Z,5
2016-10-17T14:38:46.301Z,5
2016-10-17T14:39:56.345Z,5
2016-10-17T14:41:06.652Z,5
2016-10-17T14:42:16.962Z,5
2016-10-17T14:43:27.279Z,5
2016-10-17T14:44:37.614Z,5
2016-10-17T14:45:47.918Z,5
2016-10-17T14:46:57.685Z,5
2016-10-17T14:48:07.997Z,5
2016-10-17T14:49:18.301Z,5
2016-10-17T14:50:28.633Z,5
2016-10-17T14:51:38.646Z,5
2016-10-17T14:52:48.342Z,5
2016-10-17T14:53:58.033Z,5
2016-10-17T14:55:08.323Z,5
2016-10-17T14:56:18.322Z,5
2016-10-17T14:57:28.308Z,5
2016-10-17T14:58:38.312Z,5
2016-10-17T14:59:48.007Z,5
2016-10-17T15:00:58.021Z,5
2016-10-17T15:02:07.705Z,5
2016-10-17T15:03:18.031Z,5
2016-10-17T15:04:28.331Z,5
2016-10-17T15:05:38.647Z,5
2016-10-17T15:06:49.027Z,5
2016-10-17T15:07:59.331Z,5
2016-10-17T15:09:09.656Z,5
2016-10-17T15:10:19.951Z,5
2016-10-17T15:11:29.641Z,5
2016-10-17T15:12:39.941Z,5
2016-10-17T15:13:49.627Z,5
2016-10-17T15:14:59.628Z,5
2016-10-17T15:16:09.614Z,5
2016-10-17T15:17:19.915Z,5
2016-10-17T15:18:29.957Z,5
2016-10-17T15:19:40.280Z,5
2016-10-17T15:20:50.620Z,5
2016-10-17T15:22:00.651Z,5
2016-10-17T15:23:10.682Z,5
2016-10-17T15:24:20.994Z,0
2016-10-17T15:25:31.021Z,0
2016-10-17T15:26:40.413Z,0
2016-10-17T15:27:50.728Z,0
2016-10-17T15:29:01.060Z,0
2016-10-17T15:30:11.143Z,0
2016-10-17T15:31:21.138Z,0
2016-10-17T15:32:31.453Z,0
2016-10-17T15:33:41.444Z,0
2016-10-17T15:34:51.768Z,0
2016-10-17T15:36:02.079Z,0
2016-10-17T15:37:12.378Z,0
2016-10-17T15:38:22.711Z,0
2016-10-17T15:39:32.709Z,0
2016-10-17T15:40:42.703Z,0
2016-10-17T15:41:52.395Z,0
2016-10-17T15:43:02.408Z,0
2016-10-17T15:44:12.717Z,0
2016-10-17T15:45:23.075Z,0
2016-10-17T15:46:33.371Z,0
2016-10-17T15:47:43.671Z,0
2016-10-17T15:48:53.957Z,0
2016-10-17T15:50:03.961Z,0
2016-10-17T15:51:13.661Z,0
2016-10-17T15:52:23.701Z,0
2016-10-17T15:53:33.693Z,0
2016-10-17T15:54:43.753Z,0
2016-10-17T15:55:54.087Z,0
2016-10-17T15:57:04.132Z,0
2016-10-17T15:58:14.430Z,0
2016-10-17T15:59:24.722Z,0
2016-10-17T16:00:35.009Z,0
2016-10-17T16:01:45.346Z,0
2016-10-17T16:02:55.648Z,0
2016-10-17T16:04:05.649Z,0
2016-10-17T16:05:15.949Z,0
2016-10-17T16:06:26.259Z,0
2016-10-17T16:07:36.230Z,0
2016-10-17T16:08:46.216Z,0
2016-10-17T16:09:55.889Z,0
2016-10-17T16:11:05.923Z,0
2016-10-17T16:12:15.967Z,0
2016-10-17T16:13:25.951Z,0
2016-10-17T16:14:35.946Z,0
2016-10-17T16:15:45.313Z,0
2016-10-17T16:16:55.623Z,0
2016-10-17T16:18:05.616Z,0
2016-10-17T16:19:15.641Z,0
2016-10-17T16:20:25.661Z,0
2016-10-17T16:21:35.706Z,0
2016-10-17T16:22:45.399Z,0
2016-10-17T16:23:54.812Z,0
2016-10-17T16:25:05.126Z,0
2016-10-17T16:26:15.112Z,0
2016-10-17T16:27:25.104Z,0
2016-10-17T16:28:35.112Z,0
2016-10-17T16:29:44.776Z,0
2016-10-17T16:30:54.774Z,0
2016-10-17T16:32:04.767Z,0
2016-10-17T16:33:14.757Z,0
2016-10-17T16:34:25.083Z,0
2016-10-17T16:35:35.373Z,0
2016-10-17T16:36:45.659Z,0
2016-10-17T16:37:55.317Z,0
2016-10-17T16:39:05.637Z,0
2016-10-17T16:40:15.622Z,0
2016-10-17T16:41:25.617Z,0
2016-10-17T16:42:35.607Z,0
2016-10-17T16:43:45.917Z,0
2016-10-17T16:44:55.908Z,0
2016-10-17T16:46:06.208Z,0
2016-10-17T16:47:16.514Z,0
2016-10-17T16:48:26.805Z,0
2016-10-17T16:49:36.811Z,0
2016-10-17T16:50:47.159Z,0
2016-10-17T16:51:57.473Z,0
2016-10-17T16:53:07.778Z,0
2016-10-17T16:54:18.060Z,0
2016-10-17T16:55:28.368Z,0
2016-10-17T16:56:38.697Z,0
2016-10-17T16:57:49.005Z,0
2016-10-17T16:58:59.349Z,0
2016-10-17T17:00:09.363Z,0
2016-10-17T17:01:19.685Z,0
2016-10-17T17:02:29.690Z,0
2016-10-17T17:03:40.046Z,0
2016-10-17T17:04:50.038Z,0
2016-10-17T17:06:00.354Z,0
2016-10-17T17:07:10.371Z,0
2016-10-17T17:08:20.388Z,0
2016-10-17T17:09:30.714Z,0
2016-10-17T17:10:41.015Z,0
2016-10-17T17:11:51.334Z,0
2016-10-17T17:13:01.671Z,0
2016-10-17T17:14:11.984Z,0
2016-10-17T17:15:21.981Z,0
2016-10-17T17:16:32.024Z,0
2016-10-17T17:17:42.027Z,0
2016-10-17T17:18:52.009Z,0
2016-10-17T17:20:02.005Z,0
2016-10-17T17:21:11.702Z,0
2016-10-17T17:22:22.071Z,0
2016-10-17T17:23:32.375Z,0
2016-10-17T17:24:41.770Z,0
2016-10-17T17:25:51.772Z,0
2016-10-17T17:27:02.104Z,0
2016-10-17T17:28:12.419Z,0
2016-10-17T17:29:22.726Z,0
2016-10-17T17:30:32.720Z,0